Time;durP1;ratioP1;P1;durP2;ratioP2;P2;SDS_P1;SDS_P2;PMS_P1;PMS_P2;Temp;Humidity;BMP_temperature;BMP_pressure;BME280_temperature;BME280_humidity;BME280_pressure;Samples;Min_cycle;Max_cycle;Signal;HPM_P1;HPM_P2
2023/03/26 00:00:42;;;;;;;;;;;19.70;33.00;;;;;;1537998;77;658;-60
2023/03/26 00:02:44;;;;;;;;;;;19.70;33.10;;;;;;1545005;77;1225;-61
2023/03/26 00:04:45;;;;;;;;;;;19.60;32.90;;;;;;1538396;77;754;-60
2023/03/26 00:06:50;;;;;;;;;;;19.60;32.90;;;;;;1537491;77;738;-61
2023/03/26 00:08:54;;;;;;;;;;;19.70;33.10;;;;;;1534833;77;801;-61
2023/03/26 00:10:56;;;;;;;;;;;19.70;33.10;;;;;;1529722;77;749;-62
2023/03/26 00:12:58;;;;;;;;;;;19.70;33.10;;;;;;1526621;77;1944;-61
2023/03/26 00:15:00;;;;;;;;;;;19.70;33.10;;;;;;1535747;77;721;-62
2023/03/26 00:17:03;;;;;;;;;;;19.60;32.90;;;;;;1537999;77;700;-62
2023/03/26 00:19:05;;;;;;;;;;;19.60;32.90;;;;;;1543042;77;769;-61
2023/03/26 00:21:07;;;;;;;;;;;19.70;33.10;;;;;;1536552;77;790;-61
2023/03/26 00:23:08;;;;;;;;;;;19.50;33.10;;;;;;1539926;77;1154;-60
2023/03/26 00:25:10;;;;;;;;;;;19.60;33.10;;;;;;1525905;77;674;-61
2023/03/26 00:27:13;;;;;;;;;;;19.60;33.00;;;;;;1538371;77;1358;-60
2023/03/26 00:29:15;;;;;;;;;;;19.60;33.10;;;;;;1535802;77;723;-60
2023/03/26 00:31:17;;;;;;;;;;;19.60;33.00;;;;;;1532657;77;748;-61
2023/03/26 00:33:19;;;;;;;;;;;19.60;32.80;;;;;;1538621;77;1912;-61
2023/03/26 00:35:22;;;;;;;;;;;19.60;33.10;;;;;;1547802;77;766;-62
2023/03/26 00:37:25;;;;;;;;;;;19.60;33.10;;;;;;1538216;77;755;-61
2023/03/26 00:39:28;;;;;;;;;;;19.60;33.10;;;;;;1537969;77;1610;-62
2023/03/26 00:41:30;;;;;;;;;;;19.60;33.10;;;;;;1540908;77;717;-61
2023/03/26 00:43:32;;;;;;;;;;;19.50;33.20;;;;;;1534981;77;1187;-60
2023/03/26 00:45:34;;;;;;;;;;;19.60;33.10;;;;;;1539240;77;668;-61
2023/03/26 00:47:36;;;;;;;;;;;19.60;33.10;;;;;;1545007;77;757;-60
2023/03/26 00:49:38;;;;;;;;;;;19.60;33.10;;;;;;1535914;77;807;-61
2023/03/26 00:51:40;;;;;;;;;;;19.60;33.10;;;;;;1539026;77;717;-60
2023/03/26 00:53:43;;;;;;;;;;;19.50;33.10;;;;;;1535517;77;1932;-60
2023/03/26 00:55:45;;;;;;;;;;;19.60;33.20;;;;;;1537509;77;705;-61
2023/03/26 00:57:47;;;;;;;;;;;19.60;33.10;;;;;;1540948;77;545;-61
2023/03/26 00:59:49;;;;;;;;;;;19.50;33.10;;;;;;1541372;77;668;-60
2023/03/26 01:01:53;;;;;;;;;;;19.60;33.10;;;;;;1536674;77;620;-61
2023/03/26 01:04:00;;;;;;;;;;;19.60;33.20;;;;;;1541870;77;1663;-60
2023/03/26 01:06:07;;;;;;;;;;;19.60;33.20;;;;;;1530627;77;698;-61
2023/03/26 01:08:13;;;;;;;;;;;19.50;33.20;;;;;;1542787;77;1559;-60
2023/03/26 01:10:14;;;;;;;;;;;19.60;33.20;;;;;;1534144;77;1480;-60
2023/03/26 01:12:18;;;;;;;;;;;19.60;33.20;;;;;;1546368;77;1929;-60
2023/03/26 01:14:22;;;;;;;;;;;19.60;33.10;;;;;;1531207;77;1840;-60
2023/03/26 01:16:25;;;;;;;;;;;19.60;33.10;;;;;;1539306;77;617;-61
2023/03/26 01:18:28;;;;;;;;;;;19.60;33.20;;;;;;1539963;77;1864;-61
2023/03/26 01:20:29;;;;;;;;;;;19.50;33.30;;;;;;1544154;77;764;-62
2023/03/26 01:22:31;;;;;;;;;;;19.60;33.30;;;;;;1531295;77;1484;-61
2023/03/26 01:24:33;;;;;;;;;;;19.50;33.30;;;;;;1541476;77;757;-61
2023/03/26 01:26:37;;;;;;;;;;;19.60;33.40;;;;;;1543531;77;715;-61
2023/03/26 01:28:40;;;;;;;;;;;19.60;33.30;;;;;;1535100;77;711;-61
2023/03/26 01:30:42;;;;;;;;;;;19.50;33.40;;;;;;1544846;77;714;-60
2023/03/26 01:32:49;;;;;;;;;;;19.50;33.40;;;;;;1545402;77;1949;-62
2023/03/26 01:34:52;;;;;;;;;;;19.50;33.40;;;;;;1546006;77;714;-62
2023/03/26 01:37:01;;;;;;;;;;;19.60;33.40;;;;;;1541269;77;2499;-61
2023/03/26 01:39:05;;;;;;;;;;;19.60;33.40;;;;;;1492632;77;1285;-61
2023/03/26 01:41:08;;;;;;;;;;;19.70;33.50;;;;;;1540136;77;748;-61
2023/03/26 01:43:12;;;;;;;;;;;19.60;33.40;;;;;;1531809;77;1182;-60
2023/03/26 01:45:15;;;;;;;;;;;19.60;33.40;;;;;;1541568;77;696;-61
2023/03/26 01:47:17;;;;;;;;;;;19.60;33.40;;;;;;1547360;77;693;-61
2023/03/26 01:49:19;;;;;;;;;;;19.70;33.50;;;;;;1536957;77;802;-61
2023/03/26 01:51:29;;;;;;;;;;;19.60;33.00;;;;;;1542193;77;1447;-60
2023/03/26 01:53:32;;;;;;;;;;;19.70;33.50;;;;;;1538553;77;1911;-60
2023/03/26 01:55:42;;;;;;;;;;;19.60;33.40;;;;;;1529901;77;763;-60
2023/03/26 01:57:48;;;;;;;;;;;19.70;33.50;;;;;;1535349;77;1344;-60
2023/03/26 01:59:52;;;;;;;;;;;19.70;33.50;;;;;;1534265;77;1845;-60
2023/03/26 02:01:56;;;;;;;;;;;19.70;33.50;;;;;;1538062;77;781;-61
2023/03/26 02:04:02;;;;;;;;;;;19.70;33.50;;;;;;1532337;77;2092;-61
2023/03/26 02:06:14;;;;;;;;;;;19.70;33.40;;;;;;1521241;77;1457;-62
2023/03/26 02:08:35;;;;;;;;;;;19.60;33.40;;;;;;1538449;77;1469;-61
2023/03/26 02:10:38;;;;;;;;;;;19.70;33.40;;;;;;1538486;77;720;-61
2023/03/26 02:12:41;;;;;;;;;;;19.70;33.50;;;;;;1540342;77;1934;-60
2023/03/26 02:14:43;;;;;;;;;;;19.70;33.50;;;;;;1545427;77;651;-60
2023/03/26 02:16:45;;;;;;;;;;;19.70;33.60;;;;;;1521722;77;709;-60
2023/03/26 02:18:50;;;;;;;;;;;19.80;33.60;;;;;;1525995;77;1354;-61
2023/03/26 02:20:54;;;;;;;;;;;19.70;33.50;;;;;;1537125;77;1691;-60
2023/03/26 02:22:56;;;;;;;;;;;19.70;33.50;;;;;;1545166;77;1145;-60
2023/03/26 02:24:58;;;;;;;;;;;19.80;33.60;;;;;;1541546;77;714;-62
2023/03/26 02:27:01;;;;;;;;;;;19.80;33.50;;;;;;1538163;77;746;-62
2023/03/26 02:29:02;;;;;;;;;;;19.80;33.50;;;;;;1537330;77;755;-61
2023/03/26 02:31:04;;;;;;;;;;;19.70;33.50;;;;;;1548572;77;603;-61
2023/03/26 02:33:06;;;;;;;;;;;19.70;33.50;;;;;;1543471;77;1939;-60
2023/03/26 02:35:08;;;;;;;;;;;19.70;33.40;;;;;;1534922;77;681;-60
2023/03/26 02:37:10;;;;;;;;;;;19.80;33.50;;;;;;1533685;77;658;-60
2023/03/26 02:39:13;;;;;;;;;;;19.70;33.40;;;;;;1539388;77;682;-60
2023/03/26 02:41:15;;;;;;;;;;;19.80;33.40;;;;;;1544173;77;707;-61
2023/03/26 02:43:16;;;;;;;;;;;19.80;33.40;;;;;;1535356;77;1170;-60
2023/03/26 02:45:18;;;;;;;;;;;19.70;33.40;;;;;;1541922;77;723;-61
2023/03/26 02:47:20;;;;;;;;;;;19.80;33.50;;;;;;1539067;77;1649;-61
2023/03/26 02:49:22;;;;;;;;;;;19.80;33.40;;;;;;1537673;77;748;-62
2023/03/26 02:51:24;;;;;;;;;;;19.80;33.50;;;;;;1538764;77;741;-61
2023/03/26 02:53:31;;;;;;;;;;;19.70;33.50;;;;;;1527814;77;1935;-61
2023/03/26 02:55:30;;;;;;;;;;;19.80;33.40;;;;;;1527730;77;1259;-62
2023/03/26 02:57:31;;;;;;;;;;;19.70;33.40;;;;;;1539141;77;767;-61
2023/03/26 02:59:33;;;;;;;;;;;19.80;33.40;;;;;;1538489;77;800;-61
2023/03/26 03:01:35;;;;;;;;;;;19.70;33.40;;;;;;1529438;77;1420;-63
2023/03/26 03:03:37;;;;;;;;;;;19.80;33.40;;;;;;1541352;77;1206;-60
2023/03/26 03:05:42;;;;;;;;;;;19.70;33.40;;;;;;1534918;77;699;-60
2023/03/26 03:07:45;;;;;;;;;;;19.80;33.50;;;;;;1529071;77;1693;-61
2023/03/26 03:09:49;;;;;;;;;;;19.70;33.50;;;;;;1529630;76;1663;-62
2023/03/26 03:11:51;;;;;;;;;;;19.70;33.50;;;;;;1525122;77;1435;-61
2023/03/26 03:13:53;;;;;;;;;;;19.70;33.60;;;;;;1539068;77;1927;-61
2023/03/26 03:15:55;;;;;;;;;;;19.80;33.60;;;;;;1534925;77;1521;-61
2023/03/26 03:17:56;;;;;;;;;;;19.80;33.60;;;;;;1530450;77;753;-62
2023/03/26 03:19:58;;;;;;;;;;;19.70;33.50;;;;;;1534809;77;721;-62
2023/03/26 03:22:00;;;;;;;;;;;19.70;33.60;;;;;;1533381;77;740;-62
2023/03/26 03:24:02;;;;;;;;;;;19.70;33.50;;;;;;1535879;77;1093;-62
2023/03/26 03:26:05;;;;;;;;;;;19.80;33.60;;;;;;1544760;77;806;-61
2023/03/26 03:28:07;;;;;;;;;;;19.80;33.60;;;;;;1546204;77;735;-61
2023/03/26 03:30:10;;;;;;;;;;;19.70;33.60;;;;;;1536917;77;1657;-62
2023/03/26 03:32:12;;;;;;;;;;;19.80;33.60;;;;;;1545917;77;1145;-62
2023/03/26 03:34:14;;;;;;;;;;;19.80;33.60;;;;;;1541894;77;1921;-62
2023/03/26 03:36:26;;;;;;;;;;;19.80;33.60;;;;;;1547601;77;747;-62
2023/03/26 03:38:23;;;;;;;;;;;19.70;33.60;;;;;;1536796;77;1628;-60
2023/03/26 03:40:25;;;;;;;;;;;19.70;33.60;;;;;;1541354;77;768;-60
2023/03/26 03:42:27;;;;;;;;;;;19.80;33.60;;;;;;1537253;77;1506;-61
2023/03/26 03:44:29;;;;;;;;;;;19.80;33.60;;;;;;1544373;77;662;-60
2023/03/26 03:46:31;;;;;;;;;;;19.80;33.60;;;;;;1548184;77;951;-60
2023/03/26 03:48:36;;;;;;;;;;;19.80;33.60;;;;;;1541567;77;733;-62
2023/03/26 03:50:36;;;;;;;;;;;19.80;33.60;;;;;;1547923;77;1335;-60
2023/03/26 03:52:38;;;;;;;;;;;19.80;33.70;;;;;;1540812;77;1194;-60
2023/03/26 03:54:40;;;;;;;;;;;19.80;33.70;;;;;;1544289;77;1933;-60
2023/03/26 03:56:44;;;;;;;;;;;19.80;33.70;;;;;;1541004;77;1475;-60
2023/03/26 03:58:46;;;;;;;;;;;19.80;33.70;;;;;;1540436;77;1709;-61
2023/03/26 04:00:48;;;;;;;;;;;19.80;33.70;;;;;;1544097;77;678;-61
2023/03/26 04:02:53;;;;;;;;;;;19.80;33.70;;;;;;1547337;77;1145;-62
2023/03/26 04:04:56;;;;;;;;;;;19.80;33.70;;;;;;1545159;77;1679;-62
2023/03/26 04:06:57;;;;;;;;;;;19.80;33.80;;;;;;1539610;77;1676;-62
2023/03/26 04:08:59;;;;;;;;;;;19.80;33.80;;;;;;1531338;77;711;-62
2023/03/26 04:11:01;;;;;;;;;;;19.80;33.80;;;;;;1544720;77;1362;-61
2023/03/26 04:13:03;;;;;;;;;;;19.80;33.90;;;;;;1536162;77;1943;-62
2023/03/26 04:15:05;;;;;;;;;;;19.80;33.80;;;;;;1547140;77;828;-61
2023/03/26 04:17:07;;;;;;;;;;;19.80;33.80;;;;;;1545050;77;776;-61
2023/03/26 04:19:09;;;;;;;;;;;19.70;33.80;;;;;;1537659;77;792;-60
2023/03/26 04:21:11;;;;;;;;;;;19.80;33.90;;;;;;1535234;77;642;-61
2023/03/26 04:23:13;;;;;;;;;;;19.80;33.90;;;;;;1531366;77;1142;-60
2023/03/26 04:25:16;;;;;;;;;;;19.80;33.80;;;;;;1540642;77;1606;-60
2023/03/26 04:27:19;;;;;;;;;;;19.80;33.90;;;;;;1538570;77;782;-62
2023/03/26 04:29:24;;;;;;;;;;;19.80;33.90;;;;;;1538335;77;747;-61
2023/03/26 04:31:27;;;;;;;;;;;19.80;33.90;;;;;;1537922;77;1658;-61
2023/03/26 04:33:29;;;;;;;;;;;19.80;33.90;;;;;;1531433;77;1943;-60
2023/03/26 04:35:33;;;;;;;;;;;19.80;33.90;;;;;;1547863;77;729;-61
2023/03/26 04:37:43;;;;;;;;;;;19.80;33.90;;;;;;1547248;77;774;-61
2023/03/26 04:39:43;;;;;;;;;;;19.80;33.90;;;;;;1540611;77;1643;-60
2023/03/26 04:41:45;;;;;;;;;;;19.70;34.00;;;;;;1547813;77;691;-61
2023/03/26 04:43:49;;;;;;;;;;;19.80;33.90;;;;;;1545970;77;1135;-61
2023/03/26 04:45:51;;;;;;;;;;;19.70;33.90;;;;;;1547579;77;789;-60
2023/03/26 04:47:54;;;;;;;;;;;19.80;33.90;;;;;;1548177;77;693;-60
2023/03/26 04:49:56;;;;;;;;;;;19.80;34.10;;;;;;1537842;77;699;-61
2023/03/26 04:51:58;;;;;;;;;;;19.80;34.00;;;;;;1548055;77;786;-61
2023/03/26 04:54:01;;;;;;;;;;;19.70;34.10;;;;;;1543762;77;1935;-60
2023/03/26 04:56:10;;;;;;;;;;;19.70;34.10;;;;;;1542253;77;762;-61
2023/03/26 04:58:12;;;;;;;;;;;19.80;34.00;;;;;;1540655;77;787;-61
2023/03/26 05:00:16;;;;;;;;;;;19.70;34.10;;;;;;1533215;77;738;-61
2023/03/26 05:02:19;;;;;;;;;;;19.80;34.20;;;;;;1537305;77;1143;-60
2023/03/26 05:04:20;;;;;;;;;;;19.80;34.10;;;;;;1539013;77;717;-62
2023/03/26 05:06:24;;;;;;;;;;;19.70;34.20;;;;;;1537843;77;710;-61
2023/03/26 05:08:27;;;;;;;;;;;19.70;34.20;;;;;;1541287;77;1687;-62
2023/03/26 05:10:29;;;;;;;;;;;19.80;34.20;;;;;;1540365;77;706;-60
2023/03/26 05:12:31;;;;;;;;;;;19.80;34.20;;;;;;1524803;77;1147;-60
2023/03/26 05:14:35;;;;;;;;;;;19.80;34.20;;;;;;1530906;77;1922;-61
2023/03/26 05:16:38;;;;;;;;;;;19.70;34.20;;;;;;1534555;77;555;-60
2023/03/26 05:18:40;;;;;;;;;;;19.80;34.20;;;;;;1542691;77;713;-62
2023/03/26 05:20:42;;;;;;;;;;;19.70;34.20;;;;;;1540835;77;1479;-62
2023/03/26 05:22:44;;;;;;;;;;;19.70;34.20;;;;;;1544416;77;1131;-60
2023/03/26 05:24:46;;;;;;;;;;;19.80;34.20;;;;;;1546272;77;802;-61
2023/03/26 05:26:48;;;;;;;;;;;19.80;34.10;;;;;;1535798;77;678;-61
2023/03/26 05:28:50;;;;;;;;;;;19.80;34.20;;;;;;1548360;77;801;-61
2023/03/26 05:30:51;;;;;;;;;;;19.70;34.20;;;;;;1548200;77;742;-60
2023/03/26 05:32:53;;;;;;;;;;;19.80;34.20;;;;;;1541510;77;1151;-60
2023/03/26 05:34:55;;;;;;;;;;;19.70;34.20;;;;;;1545988;77;1927;-60
2023/03/26 05:36:57;;;;;;;;;;;19.70;34.20;;;;;;1546965;77;756;-60
2023/03/26 05:39:00;;;;;;;;;;;19.70;34.20;;;;;;1543599;77;731;-61
2023/03/26 05:41:02;;;;;;;;;;;19.80;34.20;;;;;;1539257;77;692;-62
2023/03/26 05:43:05;;;;;;;;;;;20.00;34.40;;;;;;1535432;77;1137;-61
2023/03/26 05:45:07;;;;;;;;;;;19.80;34.30;;;;;;1543744;77;641;-61
2023/03/26 05:47:09;;;;;;;;;;;19.70;34.30;;;;;;1536902;77;631;-60
2023/03/26 05:49:11;;;;;;;;;;;19.70;34.30;;;;;;1535301;77;1528;-61
2023/03/26 05:51:14;;;;;;;;;;;19.70;34.30;;;;;;1538522;77;682;-61
2023/03/26 05:53:17;;;;;;;;;;;19.70;34.30;;;;;;1548264;77;1179;-60
2023/03/26 05:55:20;;;;;;;;;;;19.70;34.40;;;;;;1528004;77;1904;-61
2023/03/26 05:57:22;;;;;;;;;;;19.70;34.40;;;;;;1535794;77;746;-60
2023/03/26 05:59:24;;;;;;;;;;;19.70;34.30;;;;;;1540013;77;798;-60
2023/03/26 06:01:28;;;;;;;;;;;19.70;34.30;;;;;;1538928;77;776;-60
2023/03/26 06:03:30;;;;;;;;;;;19.70;34.20;;;;;;1542780;77;1504;-60
2023/03/26 06:05:35;;;;;;;;;;;19.70;34.30;;;;;;1545797;77;711;-61
2023/03/26 06:07:36;;;;;;;;;;;19.70;34.30;;;;;;1527966;77;1494;-60
2023/03/26 06:09:38;;;;;;;;;;;19.80;34.20;;;;;;1532409;77;688;-59
2023/03/26 06:11:40;;;;;;;;;;;19.70;34.20;;;;;;1543413;77;750;-61
2023/03/26 06:13:42;;;;;;;;;;;19.80;34.20;;;;;;1531838;77;1160;-60
2023/03/26 06:15:44;;;;;;;;;;;19.80;34.20;;;;;;1532964;77;1946;-60
2023/03/26 06:17:46;;;;;;;;;;;19.80;34.20;;;;;;1537522;77;1622;-61
2023/03/26 06:19:48;;;;;;;;;;;19.80;34.30;;;;;;1534996;77;658;-60
2023/03/26 06:21:50;;;;;;;;;;;19.80;34.30;;;;;;1529670;77;662;-61
2023/03/26 06:23:51;;;;;;;;;;;19.90;34.40;;;;;;1538567;77;1131;-60
2023/03/26 06:25:53;;;;;;;;;;;19.80;34.40;;;;;;1539752;77;691;-60
2023/03/26 06:27:55;;;;;;;;;;;19.80;34.50;;;;;;1535221;77;763;-60
2023/03/26 06:29:57;;;;;;;;;;;19.80;34.50;;;;;;1548546;77;948;-61
2023/03/26 06:31:59;;;;;;;;;;;19.70;34.50;;;;;;1545125;77;2413;-60
2023/03/26 06:34:01;;;;;;;;;;;19.70;34.50;;;;;;1542813;77;1912;-62
2023/03/26 06:36:03;;;;;;;;;;;19.70;34.50;;;;;;1548326;77;631;-60
2023/03/26 06:38:06;;;;;;;;;;;19.70;34.60;;;;;;1539958;77;754;-61
2023/03/26 06:40:08;;;;;;;;;;;19.70;34.60;;;;;;1541841;77;615;-61
2023/03/26 06:42:10;;;;;;;;;;;19.70;34.50;;;;;;1540233;77;1177;-60
2023/03/26 06:44:12;;;;;;;;;;;19.80;34.40;;;;;;1547280;77;789;-61
2023/03/26 06:46:14;;;;;;;;;;;19.80;34.40;;;;;;1537880;77;1594;-60
2023/03/26 06:48:16;;;;;;;;;;;19.80;34.40;;;;;;1532046;77;740;-60
2023/03/26 06:50:18;;;;;;;;;;;19.80;34.40;;;;;;1542937;77;808;-61
2023/03/26 06:52:20;;;;;;;;;;;19.80;34.40;;;;;;1533457;77;1131;-62
2023/03/26 06:54:22;;;;;;;;;;;19.80;34.40;;;;;;1538894;77;1938;-60
2023/03/26 06:56:24;;;;;;;;;;;19.80;34.40;;;;;;1547969;77;723;-61
2023/03/26 06:58:26;;;;;;;;;;;19.90;34.50;;;;;;1547242;77;752;-61
2023/03/26 07:00:28;;;;;;;;;;;19.90;34.40;;;;;;1545883;77;1329;-62
2023/03/26 07:02:29;;;;;;;;;;;19.90;34.40;;;;;;1544402;77;1205;-61
2023/03/26 07:04:31;;;;;;;;;;;19.90;34.40;;;;;;1547353;77;710;-60
2023/03/26 07:06:33;;;;;;;;;;;19.80;34.30;;;;;;1547103;77;693;-60
2023/03/26 07:08:35;;;;;;;;;;;19.90;34.40;;;;;;1533371;77;850;-60
2023/03/26 07:10:37;;;;;;;;;;;19.90;34.40;;;;;;1530348;77;717;-60
2023/03/26 07:12:41;;;;;;;;;;;19.90;34.40;;;;;;1537045;77;1197;-60
2023/03/26 07:14:43;;;;;;;;;;;19.90;34.40;;;;;;1542154;77;1924;-60
2023/03/26 07:16:45;;;;;;;;;;;19.90;34.40;;;;;;1537331;77;672;-61
2023/03/26 07:18:46;;;;;;;;;;;19.90;34.40;;;;;;1538288;77;824;-61
2023/03/26 07:20:49;;;;;;;;;;;19.80;34.40;;;;;;1538991;77;633;-59
2023/03/26 07:22:51;;;;;;;;;;;19.80;34.50;;;;;;1543661;77;1155;-61
2023/03/26 07:24:53;;;;;;;;;;;19.80;34.50;;;;;;1544168;77;657;-60
2023/03/26 07:26:56;;;;;;;;;;;19.80;34.50;;;;;;1541661;77;725;-61
2023/03/26 07:29:02;;;;;;;;;;;19.80;34.50;;;;;;1545982;77;1584;-60
2023/03/26 07:31:05;;;;;;;;;;;19.80;34.50;;;;;;1546341;77;785;-61
2023/03/26 07:33:09;;;;;;;;;;;19.90;34.60;;;;;;1538923;77;1145;-61
2023/03/26 07:35:18;;;;;;;;;;;19.80;34.40;;;;;;1544579;77;1937;-61
2023/03/26 07:37:28;;;;;;;;;;;19.80;34.40;;;;;;1544582;77;1961;-61
2023/03/26 07:39:50;;;;;;;;;;;19.90;34.50;;;;;;1544099;77;1923;-63
2023/03/26 07:41:57;;;;;;;;;;;19.80;34.40;;;;;;1538903;77;1890;-61
2023/03/26 07:44:03;;;;;;;;;;;19.80;34.60;;;;;;1538794;77;1115;-60
2023/03/26 07:46:06;;;;;;;;;;;19.80;34.50;;;;;;1539032;77;2037;-60
2023/03/26 07:48:15;;;;;;;;;;;19.80;34.70;;;;;;1541066;77;707;-62
2023/03/26 07:50:18;;;;;;;;;;;19.80;34.70;;;;;;1542723;77;773;-61
2023/03/26 07:52:20;;;;;;;;;;;19.80;34.70;;;;;;1548028;77;1150;-61
2023/03/26 07:54:22;;;;;;;;;;;19.80;34.70;;;;;;1548768;77;1931;-60
2023/03/26 07:56:32;;;;;;;;;;;19.70;34.70;;;;;;1542251;77;1446;-60
2023/03/26 07:58:41;;;;;;;;;;;19.70;34.90;;;;;;1547402;77;695;-60
2023/03/26 08:00:45;;;;;;;;;;;19.70;34.90;;;;;;1526736;77;1921;-60
2023/03/26 08:02:51;;;;;;;;;;;19.60;34.80;;;;;;1535192;77;1828;-60
2023/03/26 08:04:57;;;;;;;;;;;19.70;35.10;;;;;;1545722;77;1911;-59
2023/03/26 08:07:01;;;;;;;;;;;19.80;35.00;;;;;;1535785;77;2050;-61
2023/03/26 08:09:04;;;;;;;;;;;19.80;35.00;;;;;;1537228;77;774;-61
2023/03/26 08:11:08;;;;;;;;;;;19.80;35.00;;;;;;1524115;77;1802;-60
2023/03/26 08:13:11;;;;;;;;;;;19.80;35.00;;;;;;1535016;77;1455;-60
2023/03/26 08:15:31;;;;;;;;;;;19.70;35.00;;;;;;1532445;77;1981;-61
2023/03/26 08:17:34;;;;;;;;;;;19.70;35.10;;;;;;1539192;77;1864;-61
2023/03/26 08:19:42;;;;;;;;;;;19.60;35.00;;;;;;1548732;77;794;-60
2023/03/26 08:21:46;;;;;;;;;;;19.70;35.10;;;;;;1539407;77;2194;-61
2023/03/26 08:23:50;;;;;;;;;;;19.70;35.30;;;;;;1545767;77;1590;-61
2023/03/26 08:26:01;;;;;;;;;;;19.70;35.30;;;;;;1533372;77;735;-60
2023/03/26 08:28:10;;;;;;;;;;;19.70;35.40;;;;;;1533926;77;892;-61
2023/03/26 08:30:17;;;;;;;;;;;19.70;35.30;;;;;;1545997;77;1831;-60
2023/03/26 08:32:19;;;;;;;;;;;19.70;35.30;;;;;;1541220;77;1159;-61
2023/03/26 08:34:20;;;;;;;;;;;19.70;35.40;;;;;;1536423;77;808;-60
2023/03/26 08:36:22;;;;;;;;;;;19.70;35.40;;;;;;1546708;77;1925;-60
2023/03/26 08:38:24;;;;;;;;;;;19.60;35.30;;;;;;1538851;77;1562;-60
2023/03/26 08:40:28;;;;;;;;;;;19.60;35.40;;;;;;1547922;77;675;-61
2023/03/26 08:42:37;;;;;;;;;;;19.60;35.30;;;;;;1541622;77;1894;-61
2023/03/26 08:44:43;;;;;;;;;;;19.60;35.40;;;;;;1535060;77;699;-60
2023/03/26 08:46:47;;;;;;;;;;;19.60;35.40;;;;;;1538119;77;1704;-60
2023/03/26 08:48:51;;;;;;;;;;;19.50;35.50;;;;;;1533664;77;692;-60
2023/03/26 08:51:12;;;;;;;;;;;19.50;35.70;;;;;;1532883;77;830;-60
2023/03/26 08:53:28;;;;;;;;;;;19.50;35.90;;;;;;1540741;77;1962;-61
2023/03/26 08:55:48;;;;;;;;;;;19.40;35.80;;;;;;1547782;77;1983;-60
2023/03/26 08:58:04;;;;;;;;;;;19.50;35.90;;;;;;1536107;77;712;-61
2023/03/26 09:00:09;;;;;;;;;;;19.40;35.90;;;;;;1534223;77;1925;-61
2023/03/26 09:02:15;;;;;;;;;;;19.40;35.90;;;;;;1537009;77;1676;-61
2023/03/26 09:04:34;;;;;;;;;;;19.40;36.00;;;;;;1529993;77;1902;-61
2023/03/26 09:06:53;;;;;;;;;;;19.50;36.10;;;;;;1545730;77;1846;-60
2023/03/26 09:08:56;;;;;;;;;;;19.50;36.10;;;;;;1534927;77;762;-61
2023/03/26 09:11:00;;;;;;;;;;;19.50;35.90;;;;;;1541098;77;1625;-61
2023/03/26 09:13:16;;;;;;;;;;;19.50;36.00;;;;;;1539685;77;1159;-61
2023/03/26 09:15:22;;;;;;;;;;;19.50;36.00;;;;;;1541901;77;1931;-61
2023/03/26 09:17:31;;;;;;;;;;;19.40;36.00;;;;;;1477810;77;950;-60
2023/03/26 09:19:44;;;;;;;;;;;19.50;36.20;;;;;;1533158;77;777;-61
2023/03/26 09:21:57;;;;;;;;;;;19.40;36.10;;;;;;1528250;77;709;-60
2023/03/26 09:24:09;;;;;;;;;;;19.40;36.20;;;;;;1546001;77;1850;-61
2023/03/26 09:26:29;;;;;;;;;;;19.40;36.20;;;;;;1538496;77;781;-61
2023/03/26 09:28:50;;;;;;;;;;;19.40;36.10;;;;;;1543043;77;679;-60
2023/03/26 09:31:06;;;;;;;;;;;19.50;36.30;;;;;;1537690;77;750;-60
2023/03/26 09:33:26;;;;;;;;;;;19.40;36.10;;;;;;1530109;77;1938;-61
2023/03/26 09:35:46;;;;;;;;;;;19.40;36.30;;;;;;1540127;77;1911;-61
2023/03/26 09:37:53;;;;;;;;;;;19.30;36.30;;;;;;1539913;77;707;-60
2023/03/26 09:40:05;;;;;;;;;;;19.40;36.30;;;;;;1538694;77;1944;-60
2023/03/26 09:42:08;;;;;;;;;;;19.40;36.30;;;;;;1538960;77;1846;-61
2023/03/26 09:44:24;;;;;;;;;;;19.40;36.30;;;;;;1542394;77;728;-61
2023/03/26 09:46:44;;;;;;;;;;;19.50;36.50;;;;;;1539389;77;2107;-61
2023/03/26 09:48:54;;;;;;;;;;;19.40;36.30;;;;;;1532847;77;1488;-60
2023/03/26 09:50:58;;;;;;;;;;;19.50;36.50;;;;;;1532769;77;766;-61
2023/03/26 09:53:04;;;;;;;;;;;19.40;36.30;;;;;;1540896;77;1106;-61
2023/03/26 09:55:24;;;;;;;;;;;19.50;36.30;;;;;;1545347;77;1959;-61
2023/03/26 09:57:28;;;;;;;;;;;19.50;36.40;;;;;;1531555;77;750;-60
2023/03/26 09:59:48;;;;;;;;;;;19.50;36.50;;;;;;1542404;77;760;-60
2023/03/26 10:01:57;;;;;;;;;;;19.40;36.40;;;;;;1530089;77;645;-60
2023/03/26 10:04:13;;;;;;;;;;;19.50;36.50;;;;;;1534581;77;1215;-61
2023/03/26 10:06:29;;;;;;;;;;;19.50;36.50;;;;;;1534048;77;1777;-60
2023/03/26 10:08:49;;;;;;;;;;;19.40;36.40;;;;;;1537977;77;1455;-61
2023/03/26 10:11:09;;;;;;;;;;;19.40;36.40;;;;;;1543141;77;796;-61
2023/03/26 10:13:25;;;;;;;;;;;19.50;36.50;;;;;;1533546;77;1082;-61
2023/03/26 10:15:45;;;;;;;;;;;19.40;36.50;;;;;;1545013;77;1931;-62
2023/03/26 10:17:51;;;;;;;;;;;19.30;36.70;;;;;;1539085;77;1560;-62
2023/03/26 10:20:12;;;;;;;;;;;19.20;36.70;;;;;;1535154;77;799;-61
2023/03/26 10:22:18;;;;;;;;;;;19.40;36.80;;;;;;1535659;77;1154;-61
2023/03/26 10:24:28;;;;;;;;;;;19.30;36.90;;;;;;1537609;77;596;-61
2023/03/26 10:26:32;;;;;;;;;;;19.30;36.90;;;;;;1540380;77;1911;-61
2023/03/26 10:28:41;;;;;;;;;;;19.20;36.90;;;;;;1544930;77;680;-61
2023/03/26 10:31:02;;;;;;;;;;;19.30;36.90;;;;;;1538555;77;1346;-61
2023/03/26 10:33:08;;;;;;;;;;;19.30;37.10;;;;;;1544260;77;1138;-60
2023/03/26 10:35:12;;;;;;;;;;;19.30;36.90;;;;;;1539291;77;1944;-61
2023/03/26 10:37:24;;;;;;;;;;;19.30;37.10;;;;;;1540328;77;717;-60
2023/03/26 10:39:45;;;;;;;;;;;19.30;37.10;;;;;;1537755;77;1421;-60
2023/03/26 10:41:54;;;;;;;;;;;19.30;37.00;;;;;;1540842;77;723;-60
2023/03/26 10:44:01;;;;;;;;;;;19.40;36.90;;;;;;1536092;77;1052;-61
2023/03/26 10:46:21;;;;;;;;;;;19.40;37.00;;;;;;1545183;77;1952;-61
2023/03/26 10:48:41;;;;;;;;;;;19.40;36.90;;;;;;1542637;77;720;-60
2023/03/26 10:50:51;;;;;;;;;;;19.40;36.90;;;;;;1548318;77;742;-62
2023/03/26 10:52:54;;;;;;;;;;;19.40;36.80;;;;;;1546930;77;1129;-60
2023/03/26 10:54:57;;;;;;;;;;;19.40;36.80;;;;;;1545924;77;809;-60
2023/03/26 10:57:00;;;;;;;;;;;19.40;36.80;;;;;;1540011;77;1886;-61
2023/03/26 10:59:03;;;;;;;;;;;19.40;36.80;;;;;;1542724;77;1261;-60
2023/03/26 11:01:07;;;;;;;;;;;19.50;36.80;;;;;;1533575;77;1790;-61
2023/03/26 11:03:19;;;;;;;;;;;19.50;36.90;;;;;;1529757;77;1648;-61
2023/03/26 11:05:26;;;;;;;;;;;19.50;36.80;;;;;;1535624;77;687;-61
2023/03/26 11:07:29;;;;;;;;;;;19.50;36.80;;;;;;1546539;77;811;-61
2023/03/26 11:09:39;;;;;;;;;;;19.40;36.60;;;;;;1534050;77;1672;-61
2023/03/26 11:11:43;;;;;;;;;;;19.30;36.80;;;;;;1548594;77;671;-61
2023/03/26 11:14:02;;;;;;;;;;;19.40;36.90;;;;;;1515850;77;1735;-62
2023/03/26 11:16:04;;;;;;;;;;;19.30;36.90;;;;;;1536409;77;1936;-60
2023/03/26 11:18:20;;;;;;;;;;;19.20;37.10;;;;;;1543154;77;836;-61
2023/03/26 11:20:24;;;;;;;;;;;19.00;36.90;;;;;;1546153;77;674;-60
2023/03/26 11:22:27;;;;;;;;;;;19.20;37.20;;;;;;1547817;77;1957;-60
2023/03/26 11:24:31;;;;;;;;;;;19.10;37.20;;;;;;1546602;77;664;-61
2023/03/26 11:26:34;;;;;;;;;;;19.20;37.10;;;;;;1533696;77;1553;-60
2023/03/26 11:28:47;;;;;;;;;;;19.20;37.20;;;;;;1537955;77;1952;-60
2023/03/26 11:30:57;;;;;;;;;;;19.20;37.20;;;;;;1540962;77;702;-60
2023/03/26 11:33:02;;;;;;;;;;;19.20;37.30;;;;;;1544879;77;1528;-61
2023/03/26 11:35:09;;;;;;;;;;;19.20;37.30;;;;;;1547838;77;721;-61
2023/03/26 11:37:22;;;;;;;;;;;19.20;37.20;;;;;;1537142;77;1912;-61
2023/03/26 11:39:25;;;;;;;;;;;19.20;37.10;;;;;;1541446;77;1823;-61
2023/03/26 11:41:29;;;;;;;;;;;19.10;37.10;;;;;;1537053;77;1600;-61
2023/03/26 11:43:33;;;;;;;;;;;19.10;37.20;;;;;;1537583;77;1113;-61
2023/03/26 11:45:36;;;;;;;;;;;19.10;37.20;;;;;;1542710;77;1247;-60
2023/03/26 11:47:38;;;;;;;;;;;19.10;37.30;;;;;;1545672;77;660;-62
2023/03/26 11:49:40;;;;;;;;;;;19.10;37.40;;;;;;1538957;77;717;-61
2023/03/26 11:51:42;;;;;;;;;;;19.10;37.50;;;;;;1537381;77;968;-61
2023/03/26 11:53:47;;;;;;;;;;;19.10;37.50;;;;;;1515513;77;1080;-60
2023/03/26 11:55:55;;;;;;;;;;;19.20;37.40;;;;;;1541398;77;1935;-60
2023/03/26 11:57:57;;;;;;;;;;;19.20;37.50;;;;;;1531116;77;1005;-61
2023/03/26 12:00:10;;;;;;;;;;;19.20;37.40;;;;;;1546271;77;873;-61
2023/03/26 12:02:12;;;;;;;;;;;19.20;37.30;;;;;;1533144;77;1843;-61
2023/03/26 12:04:14;;;;;;;;;;;19.40;37.40;;;;;;1544445;77;694;-61
2023/03/26 12:06:24;;;;;;;;;;;19.40;37.30;;;;;;1535518;77;725;-60
2023/03/26 12:08:34;;;;;;;;;;;19.40;37.30;;;;;;1546019;75;702;-59
2023/03/26 12:10:37;;;;;;;;;;;19.50;37.40;;;;;;1543150;77;1855;-59
2023/03/26 12:12:40;;;;;;;;;;;19.40;37.20;;;;;;1543679;77;1181;-59
2023/03/26 12:14:42;;;;;;;;;;;19.50;37.30;;;;;;1543730;77;572;-60
2023/03/26 12:17:00;;;;;;;;;;;19.50;37.20;;;;;;1533391;77;1927;-59
2023/03/26 12:19:06;;;;;;;;;;;19.50;37.10;;;;;;1546223;77;1723;-60
2023/03/26 12:21:13;;;;;;;;;;;19.60;37.00;;;;;;1536956;77;766;-60
2023/03/26 12:23:17;;;;;;;;;;;19.60;37.10;;;;;;1526353;77;1786;-61